createdAt,value
2023-03-22T00:01:56.913Z,76.76
2023-03-22T00:04:26.873Z,76.82
2023-03-22T00:06:57.531Z,76.49
2023-03-22T00:09:27.157Z,76.20
2023-03-22T00:11:56.350Z,76.33
2023-03-22T00:14:25.884Z,76.49
2023-03-22T00:16:55.095Z,76.73
2023-03-22T00:19:24.532Z,76.47
2023-03-22T00:21:53.750Z,76.91
2023-03-22T00:24:24.599Z,77.28
2023-03-22T00:26:53.885Z,77.67
2023-03-22T00:29:24.226Z,76.65
2023-03-22T00:31:56.257Z,77.03
2023-03-22T00:34:27.151Z,77.53
2023-03-22T00:36:57.225Z,78.50
2023-03-22T00:39:28.642Z,78.19
2023-03-22T00:41:57.868Z,78.79
2023-03-22T00:44:27.394Z,78.71
2023-03-22T00:46:56.838Z,81.33
2023-03-22T00:49:27.335Z,80.97
2023-03-22T00:51:56.473Z,81.44
2023-03-22T00:54:27.409Z,80.08
2023-03-22T00:56:56.661Z,79.84
2023-03-22T00:59:26.189Z,81.53
2023-03-22T01:01:55.633Z,81.71
2023-03-22T01:04:28.932Z,81.86
2023-03-22T01:07:02.239Z,80.58
2023-03-22T01:09:33.917Z,82.48
2023-03-22T01:12:04.318Z,82.20
2023-03-22T01:14:33.832Z,82.39
2023-03-22T01:17:03.056Z,81.89
2023-03-22T01:19:32.642Z,82.80
2023-03-22T01:22:01.905Z,83.25
2023-03-22T01:24:33.572Z,83.41
2023-03-22T01:27:02.879Z,84.20
2023-03-22T01:29:33.055Z,83.44
2023-03-22T01:32:02.520Z,82.36
2023-03-22T01:34:32.271Z,83.25
2023-03-22T01:37:02.239Z,84.03
2023-03-22T01:39:33.607Z,84.42
2023-03-22T01:42:07.222Z,84.24
2023-03-22T01:44:37.756Z,84.09
2023-03-22T01:47:06.857Z,85.12
2023-03-22T01:49:37.620Z,84.80
2023-03-22T01:52:11.752Z,84.44
2023-03-22T01:54:58.826Z,84.75
2023-03-22T01:57:38.058Z,84.32
2023-03-22T02:00:15.966Z,84.36
2023-03-22T02:03:14.686Z,84.37
2023-03-22T02:05:49.161Z,83.55
2023-03-22T02:08:19.135Z,84.63
2023-03-22T02:11:02.892Z,85.25
2023-03-22T02:13:51.916Z,85.60
2023-03-22T02:16:57.126Z,85.02
2023-03-22T02:20:00.180Z,84.62
2023-03-22T02:23:07.526Z,85.31
2023-03-22T02:26:09.088Z,85.28
2023-03-22T02:28:48.221Z,84.91
2023-03-22T02:32:10.938Z,84.45
2023-03-22T02:35:04.087Z,84.73
2023-03-22T02:38:01.591Z,85.06
2023-03-22T02:40:37.458Z,85.02
2023-03-22T02:43:16.648Z,85.52
2023-03-22T02:45:53.002Z,85.56
2023-03-22T02:48:29.754Z,85.31
2023-03-22T02:51:06.561Z,84.89
2023-03-22T02:53:41.678Z,85.74
2023-03-22T02:56:18.360Z,85.58
2023-03-22T02:58:52.014Z,84.83
2023-03-22T03:01:26.583Z,85.24
2023-03-22T03:03:59.378Z,85.77
2023-03-22T03:06:33.641Z,84.91
2023-03-22T03:09:05.273Z,84.34
2023-03-22T03:11:36.739Z,84.20
2023-03-22T03:14:07.091Z,84.75
2023-03-22T03:16:36.871Z,84.18
2023-03-22T03:19:19.948Z,85.01
2023-03-22T03:22:00.029Z,84.08
2023-03-22T03:24:34.757Z,86.04
2023-03-22T03:27:11.002Z,86.00
2023-03-22T03:29:46.082Z,85.74
2023-03-22T03:32:22.717Z,85.63
2023-03-22T03:34:57.361Z,86.06
2023-03-22T03:37:31.097Z,85.43
2023-03-22T03:40:06.697Z,86.20
2023-03-22T03:42:44.045Z,86.50
2023-03-22T03:45:15.545Z,87.16
2023-03-22T03:47:46.115Z,87.24
2023-03-22T03:50:16.806Z,87.47
2023-03-22T03:52:46.373Z,88.00
2023-03-22T03:55:15.908Z,88.33
2023-03-22T03:57:46.832Z,88.83
2023-03-22T04:00:17.354Z,89.55
2023-03-22T04:03:07.733Z,89.66
2023-03-22T04:05:46.820Z,88.89
2023-03-22T04:08:16.493Z,89.71
2023-03-22T04:10:49.835Z,89.76
2023-03-22T04:13:21.831Z,91.07
2023-03-22T04:15:54.607Z,90.70
2023-03-22T04:18:24.384Z,91.36
2023-03-22T04:20:53.777Z,91.14
2023-03-22T04:23:25.755Z,92.20
2023-03-22T04:25:59.911Z,91.08
2023-03-22T04:28:42.270Z,93.14
2023-03-22T04:31:14.336Z,92.67
2023-03-22T04:34:00.465Z,92.86
2023-03-22T04:36:45.301Z,91.71
2023-03-22T04:39:35.210Z,91.59
2023-03-22T04:42:33.931Z,91.66
2023-03-22T04:45:14.130Z,91.37
2023-03-22T04:47:46.251Z,91.47
2023-03-22T04:50:15.805Z,93.83
2023-03-22T04:52:52.306Z,92.87
2023-03-22T04:55:22.097Z,94.04
2023-03-22T04:57:54.755Z,93.55
2023-03-22T05:00:30.488Z,93.19
2023-03-22T05:03:01.979Z,94.85
2023-03-22T05:05:52.772Z,94.46
2023-03-22T05:08:25.005Z,94.73
2023-03-22T05:10:56.192Z,96.06
2023-03-22T05:13:26.789Z,94.85
2023-03-22T05:15:58.201Z,95.51
2023-03-22T05:18:38.100Z,95.50
2023-03-22T05:21:11.858Z,94.75
2023-03-22T05:23:41.171Z,95.22
2023-03-22T05:26:11.105Z,96.17
2023-03-22T05:28:40.363Z,95.19
2023-03-22T05:31:17.309Z,96.00
2023-03-22T05:33:54.045Z,94.87
2023-03-22T05:36:25.888Z,96.29
2023-03-22T05:39:18.559Z,96.50
2023-03-22T05:41:48.167Z,95.64
2023-03-22T05:44:17.680Z,95.15
2023-03-22T05:47:03.624Z,95.00
2023-03-22T05:49:45.198Z,95.78
2023-03-22T05:52:15.042Z,94.52
2023-03-22T05:55:03.082Z,96.27
2023-03-22T05:57:32.703Z,95.54
2023-03-22T06:00:02.172Z,95.25
2023-03-22T06:02:44.177Z,95.10
2023-03-22T06:05:15.384Z,95.50
2023-03-22T06:07:45.969Z,95.75
2023-03-22T06:10:19.606Z,95.11
2023-03-22T06:12:49.350Z,95.15
2023-03-22T06:15:26.537Z,94.66
2023-03-22T06:18:12.140Z,96.09
2023-03-22T06:20:45.592Z,95.69
2023-03-22T06:23:22.607Z,96.10
2023-03-22T06:25:51.937Z,96.75
2023-03-22T06:28:21.980Z,96.72
2023-03-22T06:30:53.588Z,97.49
2023-03-22T06:33:38.153Z,98.33
2023-03-22T06:36:18.838Z,97.83
2023-03-22T06:39:08.703Z,97.12
2023-03-22T06:41:38.235Z,97.75
2023-03-22T06:44:07.893Z,97.50
2023-03-22T06:47:06.428Z,97.17
2023-03-22T06:49:47.759Z,97.13
2023-03-22T06:52:22.778Z,97.73
2023-03-22T06:54:52.361Z,97.46
2023-03-22T06:57:22.106Z,96.83
2023-03-22T06:59:51.612Z,96.77
2023-03-22T07:02:21.098Z,96.20
2023-03-22T07:05:12.722Z,96.35
2023-03-22T07:07:42.169Z,97.19
2023-03-22T07:10:12.033Z,97.51
2023-03-22T07:12:41.292Z,96.60
2023-03-22T07:15:15.082Z,96.40
2023-03-22T07:17:54.631Z,96.49
2023-03-22T07:20:25.627Z,96.83
2023-03-22T07:22:55.048Z,95.72
2023-03-22T07:25:26.557Z,95.38
2023-03-22T07:28:04.598Z,95.53
2023-03-22T07:30:35.884Z,96.34
2023-03-22T07:33:05.715Z,95.74
2023-03-22T07:35:37.473Z,96.04
2023-03-22T07:38:07.850Z,95.73
2023-03-22T07:40:39.216Z,95.87
2023-03-22T07:43:12.094Z,94.97
2023-03-22T07:46:04.440Z,95.44
2023-03-22T07:49:09.475Z,94.63
2023-03-22T07:51:59.089Z,94.72
2023-03-22T07:54:33.895Z,94.42
2023-03-22T07:57:06.922Z,94.02
2023-03-22T07:59:40.366Z,93.30
2023-03-22T08:02:12.063Z,93.27
2023-03-22T08:04:49.706Z,93.18
2023-03-22T08:07:42.890Z,92.82
2023-03-22T08:10:13.214Z,92.70
2023-03-22T08:12:42.835Z,91.53
2023-03-22T08:15:24.048Z,90.55
2023-03-22T08:17:53.906Z,89.29
2023-03-22T08:20:32.253Z,89.90
2023-03-22T08:23:08.100Z,89.64
2023-03-22T08:25:56.004Z,89.65
2023-03-22T08:28:25.878Z,89.14
2023-03-22T08:30:55.278Z,89.03
2023-03-22T08:33:25.517Z,89.44
2023-03-22T08:36:04.936Z,88.86
2023-03-22T08:38:36.262Z,88.57
2023-03-22T08:41:09.557Z,88.36
2023-03-22T08:43:39.474Z,88.00
2023-03-22T08:46:08.964Z,88.17
2023-03-22T08:48:41.781Z,88.57
2023-03-22T08:51:19.216Z,88.68
2023-03-22T08:54:04.778Z,88.31
2023-03-22T08:56:52.668Z,87.08
2023-03-22T08:59:56.876Z,87.22
2023-03-22T09:02:32.830Z,87.49
2023-03-22T09:05:02.572Z,87.00
2023-03-22T09:07:32.476Z,85.74
2023-03-22T09:10:12.697Z,86.23
2023-03-22T09:12:45.278Z,85.71
2023-03-22T09:15:14.918Z,85.59
2023-03-22T09:17:48.183Z,85.38
2023-03-22T09:20:18.498Z,85.47
2023-03-22T09:22:49.528Z,85.58
2023-03-22T09:25:22.474Z,86.14
2023-03-22T09:27:52.861Z,85.08
2023-03-22T09:30:22.633Z,84.78
2023-03-22T09:32:51.884Z,84.94
2023-03-22T09:35:22.660Z,85.18
2023-03-22T09:38:07.169Z,84.94
2023-03-22T09:40:45.225Z,84.22
2023-03-22T09:43:16.367Z,84.43
2023-03-22T09:45:49.666Z,84.14
2023-03-22T09:48:22.851Z,84.41
2023-03-22T09:50:55.775Z,84.55
2023-03-22T09:53:28.284Z,83.09
2023-03-22T09:56:03.214Z,83.03
2023-03-22T09:58:38.035Z,83.13
2023-03-22T10:01:16.042Z,83.05
2023-03-22T10:04:05.636Z,82.12
2023-03-22T10:06:35.367Z,82.03
2023-03-22T10:09:11.262Z,81.16
2023-03-22T10:11:47.883Z,80.07
2023-03-22T10:14:30.714Z,80.13
2023-03-22T10:17:05.737Z,80.11
2023-03-22T10:19:41.481Z,79.13
2023-03-22T10:22:17.611Z,79.48
2023-03-22T10:24:51.057Z,78.71
2023-03-22T10:27:23.368Z,78.25
2023-03-22T10:29:57.753Z,77.93
2023-03-22T10:32:40.724Z,78.68
2023-03-22T10:35:16.480Z,77.94
2023-03-22T10:37:49.894Z,78.16
2023-03-22T10:40:22.170Z,76.37
2023-03-22T10:42:57.422Z,76.65
2023-03-22T10:45:28.453Z,76.01
2023-03-22T10:48:01.848Z,75.38
2023-03-22T10:50:34.042Z,75.59
2023-03-22T10:53:07.413Z,75.56
2023-03-22T10:55:41.824Z,74.26
2023-03-22T10:58:17.008Z,75.30
2023-03-22T11:00:49.297Z,75.04
2023-03-22T11:03:29.723Z,75.31
2023-03-22T11:06:08.464Z,75.49
2023-03-22T11:08:46.703Z,74.74
2023-03-22T11:11:23.503Z,74.58
2023-03-22T11:14:00.535Z,74.25
2023-03-22T11:16:31.132Z,74.53
2023-03-22T11:19:04.053Z,74.79
2023-03-22T11:21:34.629Z,74.04
2023-03-22T11:24:08.266Z,71.83
2023-03-22T11:26:41.372Z,72.16
2023-03-22T11:29:19.852Z,71.97
2023-03-22T11:31:58.458Z,72.30
2023-03-22T11:34:30.883Z,71.59
2023-03-22T11:37:02.306Z,72.19
2023-03-22T11:39:32.226Z,72.65
2023-03-22T11:42:04.028Z,72.74
2023-03-22T11:44:38.296Z,72.81
2023-03-22T11:47:13.703Z,74.28
2023-03-22T11:49:48.195Z,74.13
2023-03-22T11:52:21.788Z,73.59
2023-03-22T11:54:52.521Z,72.66
2023-03-22T11:57:25.406Z,72.85
2023-03-22T12:00:01.814Z,72.68
2023-03-22T12:02:34.439Z,72.39
2023-03-22T12:05:09.414Z,72.81
2023-03-22T12:07:39.846Z,73.12
2023-03-22T12:10:17.000Z,73.51
2023-03-22T12:12:52.785Z,73.83
2023-03-22T12:15:27.482Z,73.24
2023-03-22T12:18:25.900Z,72.98
2023-03-22T12:21:12.790Z,72.03
2023-03-22T12:23:42.441Z,72.10
2023-03-22T12:26:18.654Z,72.13
2023-03-22T12:28:55.286Z,72.21
2023-03-22T12:31:31.001Z,72.37
2023-03-22T12:34:04.441Z,72.19
2023-03-22T12:36:41.569Z,72.34
2023-03-22T12:39:21.315Z,72.27
2023-03-22T12:41:55.019Z,71.84
2023-03-22T12:44:29.154Z,72.11
2023-03-22T12:47:05.219Z,73.47
2023-03-22T12:49:42.098Z,72.78
2023-03-22T12:52:17.809Z,74.18
2023-03-22T12:54:49.757Z,73.86
2023-03-22T12:57:19.816Z,73.50
2023-03-22T12:59:53.121Z,72.96
2023-03-22T13:02:30.240Z,73.20
2023-03-22T13:05:02.209Z,73.46
2023-03-22T13:07:39.605Z,73.03
2023-03-22T13:10:41.948Z,72.93
2023-03-22T13:13:15.635Z,72.79
2023-03-22T13:16:02.015Z,73.43
2023-03-22T13:18:42.547Z,73.06
2023-03-22T13:21:15.047Z,73.47
2023-03-22T13:24:04.675Z,73.55
2023-03-22T13:26:41.567Z,74.33
2023-03-22T13:29:17.688Z,73.66
2023-03-22T13:31:56.076Z,73.64
2023-03-22T13:34:39.545Z,74.04
2023-03-22T13:37:22.751Z,73.99
2023-03-22T13:39:53.930Z,73.86
2023-03-22T13:42:30.028Z,73.96
2023-03-22T13:45:03.947Z,73.64
2023-03-22T13:47:37.986Z,74.82
2023-03-22T13:50:19.579Z,74.90
2023-03-22T13:52:58.518Z,74.63
2023-03-22T13:55:58.902Z,74.77
2023-03-22T13:58:38.842Z,74.83
2023-03-22T14:01:15.802Z,74.83
2023-03-22T14:03:47.788Z,75.11
2023-03-22T14:06:24.993Z,74.50
2023-03-22T14:09:00.139Z,74.15
2023-03-22T14:11:38.181Z,74.19
2023-03-22T14:14:13.557Z,74.81
2023-03-22T14:16:47.928Z,74.79
2023-03-22T14:19:20.740Z,74.35
